sensor_id;sensor_type;location;lat;lon;timestamp;P1;durP1;ratioP1;P2;durP2;ratioP2
9807;SDS011;4943;52.550;13.462;2024-03-08T00:01:10;64.87;;;37.90;;
9807;SDS011;4943;52.550;13.462;2024-03-08T00:03:39;64.67;;;37.90;;
9807;SDS011;4943;52.550;13.462;2024-03-08T00:06:07;64.90;;;37.97;;
9807;SDS011;4943;52.550;13.462;2024-03-08T00:08:36;64.40;;;37.80;;
9807;SDS011;4943;52.550;13.462;2024-03-08T00:11:05;64.40;;;37.87;;
9807;SDS011;4943;52.550;13.462;2024-03-08T00:13:34;65.50;;;38.10;;
9807;SDS011;4943;52.550;13.462;2024-03-08T00:16:03;65.67;;;38.10;;
9807;SDS011;4943;52.550;13.462;2024-03-08T00:18:32;65.73;;;38.03;;
9807;SDS011;4943;52.550;13.462;2024-03-08T00:21:00;65.37;;;37.83;;
9807;SDS011;4943;52.550;13.462;2024-03-08T00:23:28;66.17;;;38.17;;
9807;SDS011;4943;52.550;13.462;2024-03-08T00:25:58;65.40;;;37.50;;
9807;SDS011;4943;52.550;13.462;2024-03-08T00:28:26;69.70;;;38.37;;
9807;SDS011;4943;52.550;13.462;2024-03-08T00:30:54;69.60;;;38.53;;
9807;SDS011;4943;52.550;13.462;2024-03-08T00:33:22;69.53;;;38.43;;
9807;SDS011;4943;52.550;13.462;2024-03-08T00:35:51;69.57;;;38.43;;
9807;SDS011;4943;52.550;13.462;2024-03-08T00:38:19;69.67;;;38.80;;
9807;SDS011;4943;52.550;13.462;2024-03-08T00:40:47;69.57;;;38.67;;
9807;SDS011;4943;52.550;13.462;2024-03-08T00:43:17;68.90;;;38.57;;
9807;SDS011;4943;52.550;13.462;2024-03-08T00:45:46;68.53;;;38.67;;
9807;SDS011;4943;52.550;13.462;2024-03-08T00:48:14;67.43;;;38.43;;
9807;SDS011;4943;52.550;13.462;2024-03-08T00:50:42;68.73;;;38.50;;
9807;SDS011;4943;52.550;13.462;2024-03-08T00:53:12;68.20;;;38.77;;
9807;SDS011;4943;52.550;13.462;2024-03-08T00:55:42;67.70;;;38.57;;
9807;SDS011;4943;52.550;13.462;2024-03-08T00:58:12;67.13;;;38.30;;
9807;SDS011;4943;52.550;13.462;2024-03-08T01:00:42;67.00;;;38.37;;
9807;SDS011;4943;52.550;13.462;2024-03-08T01:03:11;66.20;;;38.47;;
9807;SDS011;4943;52.550;13.462;2024-03-08T01:05:42;66.03;;;38.07;;
9807;SDS011;4943;52.550;13.462;2024-03-08T01:08:11;65.80;;;37.87;;
9807;SDS011;4943;52.550;13.462;2024-03-08T01:10:40;66.60;;;38.20;;
9807;SDS011;4943;52.550;13.462;2024-03-08T01:13:08;67.07;;;38.33;;
9807;SDS011;4943;52.550;13.462;2024-03-08T01:15:39;68.00;;;38.57;;
9807;SDS011;4943;52.550;13.462;2024-03-08T01:18:09;67.80;;;38.60;;
9807;SDS011;4943;52.550;13.462;2024-03-08T01:20:39;66.73;;;38.63;;
9807;SDS011;4943;52.550;13.462;2024-03-08T01:23:08;63.47;;;37.67;;
9807;SDS011;4943;52.550;13.462;2024-03-08T01:25:36;64.33;;;37.77;;
9807;SDS011;4943;52.550;13.462;2024-03-08T01:28:08;63.00;;;37.80;;
9807;SDS011;4943;52.550;13.462;2024-03-08T01:30:36;62.67;;;37.80;;
9807;SDS011;4943;52.550;13.462;2024-03-08T01:33:05;62.70;;;37.57;;
9807;SDS011;4943;52.550;13.462;2024-03-08T01:35:34;63.20;;;37.67;;
9807;SDS011;4943;52.550;13.462;2024-03-08T01:38:03;63.20;;;37.80;;
9807;SDS011;4943;52.550;13.462;2024-03-08T01:40:31;62.87;;;37.47;;
9807;SDS011;4943;52.550;13.462;2024-03-08T01:43:14;63.37;;;37.63;;
9807;SDS011;4943;52.550;13.462;2024-03-08T01:46:02;62.90;;;37.73;;
9807;SDS011;4943;52.550;13.462;2024-03-08T01:48:31;62.50;;;37.77;;
9807;SDS011;4943;52.550;13.462;2024-03-08T01:51:00;62.10;;;37.40;;
9807;SDS011;4943;52.550;13.462;2024-03-08T01:53:31;62.93;;;37.97;;
9807;SDS011;4943;52.550;13.462;2024-03-08T01:55:59;62.80;;;37.77;;
9807;SDS011;4943;52.550;13.462;2024-03-08T01:58:30;61.97;;;37.53;;
9807;SDS011;4943;52.550;13.462;2024-03-08T02:00:59;62.50;;;37.57;;
9807;SDS011;4943;52.550;13.462;2024-03-08T02:03:29;62.43;;;37.90;;
9807;SDS011;4943;52.550;13.462;2024-03-08T02:05:58;62.33;;;37.77;;
9807;SDS011;4943;52.550;13.462;2024-03-08T02:08:28;61.40;;;37.40;;
9807;SDS011;4943;52.550;13.462;2024-03-08T02:10:56;61.97;;;37.67;;
9807;SDS011;4943;52.550;13.462;2024-03-08T02:13:24;61.27;;;37.17;;
9807;SDS011;4943;52.550;13.462;2024-03-08T02:15:53;61.80;;;37.77;;
9807;SDS011;4943;52.550;13.462;2024-03-08T02:18:23;61.57;;;37.60;;
9807;SDS011;4943;52.550;13.462;2024-03-08T02:20:52;61.50;;;37.73;;
9807;SDS011;4943;52.550;13.462;2024-03-08T02:23:21;60.30;;;37.20;;
9807;SDS011;4943;52.550;13.462;2024-03-08T02:25:51;60.53;;;37.37;;
9807;SDS011;4943;52.550;13.462;2024-03-08T02:28:20;59.30;;;36.70;;
9807;SDS011;4943;52.550;13.462;2024-03-08T02:30:49;60.37;;;37.33;;
9807;SDS011;4943;52.550;13.462;2024-03-08T02:33:21;59.60;;;37.07;;
9807;SDS011;4943;52.550;13.462;2024-03-08T02:35:50;59.67;;;37.23;;
9807;SDS011;4943;52.550;13.462;2024-03-08T02:38:21;60.37;;;37.13;;
9807;SDS011;4943;52.550;13.462;2024-03-08T02:40:53;60.23;;;37.33;;
9807;SDS011;4943;52.550;13.462;2024-03-08T02:43:22;60.03;;;37.10;;
9807;SDS011;4943;52.550;13.462;2024-03-08T02:45:51;60.47;;;37.27;;
9807;SDS011;4943;52.550;13.462;2024-03-08T02:48:20;60.67;;;37.43;;
9807;SDS011;4943;52.550;13.462;2024-03-08T02:50:49;60.83;;;37.17;;
9807;SDS011;4943;52.550;13.462;2024-03-08T02:53:18;61.17;;;37.47;;
9807;SDS011;4943;52.550;13.462;2024-03-08T02:55:50;59.60;;;36.50;;
9807;SDS011;4943;52.550;13.462;2024-03-08T02:58:18;61.00;;;37.60;;
9807;SDS011;4943;52.550;13.462;2024-03-08T03:00:46;60.00;;;37.13;;
9807;SDS011;4943;52.550;13.462;2024-03-08T03:03:15;59.90;;;37.03;;
9807;SDS011;4943;52.550;13.462;2024-03-08T03:05:43;60.13;;;37.17;;
9807;SDS011;4943;52.550;13.462;2024-03-08T03:08:15;59.53;;;36.83;;
9807;SDS011;4943;52.550;13.462;2024-03-08T03:10:44;60.50;;;37.40;;
9807;SDS011;4943;52.550;13.462;2024-03-08T03:13:14;60.50;;;37.33;;
9807;SDS011;4943;52.550;13.462;2024-03-08T03:15:42;59.37;;;36.97;;
9807;SDS011;4943;52.550;13.462;2024-03-08T03:18:10;59.80;;;37.63;;
9807;SDS011;4943;52.550;13.462;2024-03-08T03:20:39;58.93;;;36.77;;
9807;SDS011;4943;52.550;13.462;2024-03-08T03:23:09;59.77;;;37.20;;
9807;SDS011;4943;52.550;13.462;2024-03-08T03:25:42;59.80;;;37.00;;
9807;SDS011;4943;52.550;13.462;2024-03-08T03:28:13;59.87;;;37.23;;
9807;SDS011;4943;52.550;13.462;2024-03-08T03:30:44;59.97;;;37.30;;
9807;SDS011;4943;52.550;13.462;2024-03-08T03:33:13;59.67;;;37.17;;
9807;SDS011;4943;52.550;13.462;2024-03-08T03:35:44;58.63;;;36.40;;
9807;SDS011;4943;52.550;13.462;2024-03-08T03:38:12;58.70;;;36.60;;
9807;SDS011;4943;52.550;13.462;2024-03-08T03:40:41;59.80;;;37.37;;
9807;SDS011;4943;52.550;13.462;2024-03-08T03:43:11;59.80;;;37.47;;
9807;SDS011;4943;52.550;13.462;2024-03-08T03:45:41;60.37;;;37.47;;
9807;SDS011;4943;52.550;13.462;2024-03-08T03:48:09;60.73;;;37.33;;
9807;SDS011;4943;52.550;13.462;2024-03-08T03:50:38;60.60;;;37.37;;
9807;SDS011;4943;52.550;13.462;2024-03-08T03:53:07;60.07;;;37.23;;
9807;SDS011;4943;52.550;13.462;2024-03-08T03:55:37;59.30;;;37.10;;
9807;SDS011;4943;52.550;13.462;2024-03-08T03:58:07;59.20;;;36.97;;
9807;SDS011;4943;52.550;13.462;2024-03-08T04:00:37;59.63;;;37.07;;
9807;SDS011;4943;52.550;13.462;2024-03-08T04:03:08;60.13;;;37.13;;
9807;SDS011;4943;52.550;13.462;2024-03-08T04:05:36;61.80;;;37.43;;
9807;SDS011;4943;52.550;13.462;2024-03-08T04:08:05;62.33;;;37.77;;
9807;SDS011;4943;52.550;13.462;2024-03-08T04:10:34;62.60;;;37.90;;
9807;SDS011;4943;52.550;13.462;2024-03-08T04:13:03;59.40;;;37.07;;
9807;SDS011;4943;52.550;13.462;2024-03-08T04:15:31;59.67;;;37.27;;
9807;SDS011;4943;52.550;13.462;2024-03-08T04:18:00;58.53;;;36.57;;
9807;SDS011;4943;52.550;13.462;2024-03-08T04:20:30;59.67;;;37.40;;
9807;SDS011;4943;52.550;13.462;2024-03-08T04:22:58;59.50;;;37.07;;
9807;SDS011;4943;52.550;13.462;2024-03-08T04:25:27;58.90;;;36.87;;
9807;SDS011;4943;52.550;13.462;2024-03-08T04:27:55;57.80;;;36.20;;
9807;SDS011;4943;52.550;13.462;2024-03-08T04:30:23;57.97;;;36.47;;
9807;SDS011;4943;52.550;13.462;2024-03-08T04:32:52;59.10;;;36.83;;
9807;SDS011;4943;52.550;13.462;2024-03-08T04:35:21;59.37;;;37.13;;
9807;SDS011;4943;52.550;13.462;2024-03-08T04:37:50;59.67;;;37.20;;
9807;SDS011;4943;52.550;13.462;2024-03-08T04:40:18;59.07;;;36.70;;
9807;SDS011;4943;52.550;13.462;2024-03-08T04:42:46;58.93;;;36.67;;
9807;SDS011;4943;52.550;13.462;2024-03-08T04:45:17;58.77;;;36.67;;
9807;SDS011;4943;52.550;13.462;2024-03-08T04:47:45;59.47;;;36.93;;
9807;SDS011;4943;52.550;13.462;2024-03-08T04:50:14;59.10;;;36.53;;
9807;SDS011;4943;52.550;13.462;2024-03-08T04:52:42;59.87;;;37.27;;
9807;SDS011;4943;52.550;13.462;2024-03-08T04:55:12;59.40;;;37.00;;
9807;SDS011;4943;52.550;13.462;2024-03-08T04:57:40;59.27;;;36.87;;
9807;SDS011;4943;52.550;13.462;2024-03-08T05:00:12;59.27;;;36.93;;
9807;SDS011;4943;52.550;13.462;2024-03-08T05:02:41;59.17;;;36.90;;
9807;SDS011;4943;52.550;13.462;2024-03-08T05:05:10;59.37;;;36.97;;
9807;SDS011;4943;52.550;13.462;2024-03-08T05:07:38;59.50;;;37.00;;
9807;SDS011;4943;52.550;13.462;2024-03-08T05:10:07;60.13;;;37.23;;
9807;SDS011;4943;52.550;13.462;2024-03-08T05:12:37;59.63;;;36.97;;
9807;SDS011;4943;52.550;13.462;2024-03-08T05:15:06;59.87;;;37.13;;
9807;SDS011;4943;52.550;13.462;2024-03-08T05:17:34;59.47;;;36.80;;
9807;SDS011;4943;52.550;13.462;2024-03-08T05:20:06;58.20;;;36.30;;
9807;SDS011;4943;52.550;13.462;2024-03-08T05:22:38;58.90;;;36.97;;
9807;SDS011;4943;52.550;13.462;2024-03-08T05:25:08;59.07;;;36.90;;
9807;SDS011;4943;52.550;13.462;2024-03-08T05:27:38;58.67;;;36.70;;
9807;SDS011;4943;52.550;13.462;2024-03-08T05:30:07;58.90;;;36.90;;
9807;SDS011;4943;52.550;13.462;2024-03-08T05:32:42;58.20;;;36.60;;
9807;SDS011;4943;52.550;13.462;2024-03-08T05:35:11;60.80;;;37.47;;
9807;SDS011;4943;52.550;13.462;2024-03-08T05:37:39;58.77;;;36.60;;
9807;SDS011;4943;52.550;13.462;2024-03-08T05:40:08;59.87;;;37.17;;
9807;SDS011;4943;52.550;13.462;2024-03-08T05:42:44;59.60;;;37.10;;
9807;SDS011;4943;52.550;13.462;2024-03-08T05:45:12;59.53;;;37.20;;
9807;SDS011;4943;52.550;13.462;2024-03-08T05:47:41;59.20;;;36.90;;
9807;SDS011;4943;52.550;13.462;2024-03-08T05:50:10;58.83;;;36.77;;
9807;SDS011;4943;52.550;13.462;2024-03-08T05:52:38;59.73;;;37.27;;
9807;SDS011;4943;52.550;13.462;2024-03-08T05:55:06;59.50;;;36.97;;
9807;SDS011;4943;52.550;13.462;2024-03-08T05:57:36;59.47;;;37.03;;
9807;SDS011;4943;52.550;13.462;2024-03-08T06:00:08;60.07;;;37.17;;
9807;SDS011;4943;52.550;13.462;2024-03-08T06:02:38;60.07;;;37.30;;
9807;SDS011;4943;52.550;13.462;2024-03-08T06:05:08;59.67;;;37.27;;
9807;SDS011;4943;52.550;13.462;2024-03-08T06:07:39;59.90;;;36.93;;
9807;SDS011;4943;52.550;13.462;2024-03-08T06:10:09;60.47;;;37.40;;
9807;SDS011;4943;52.550;13.462;2024-03-08T06:12:39;60.23;;;37.13;;
9807;SDS011;4943;52.550;13.462;2024-03-08T06:15:10;60.67;;;37.47;;
9807;SDS011;4943;52.550;13.462;2024-03-08T06:17:41;60.10;;;37.10;;
9807;SDS011;4943;52.550;13.462;2024-03-08T06:20:10;60.37;;;37.37;;
9807;SDS011;4943;52.550;13.462;2024-03-08T06:22:40;60.50;;;37.53;;
9807;SDS011;4943;52.550;13.462;2024-03-08T06:25:08;60.60;;;37.33;;
9807;SDS011;4943;52.550;13.462;2024-03-08T06:27:37;60.57;;;37.70;;
9807;SDS011;4943;52.550;13.462;2024-03-08T06:30:06;60.70;;;37.37;;
9807;SDS011;4943;52.550;13.462;2024-03-08T06:32:37;61.10;;;37.80;;
9807;SDS011;4943;52.550;13.462;2024-03-08T06:35:06;60.20;;;37.70;;
9807;SDS011;4943;52.550;13.462;2024-03-08T06:37:36;60.20;;;37.27;;
9807;SDS011;4943;52.550;13.462;2024-03-08T06:40:05;61.33;;;37.97;;
9807;SDS011;4943;52.550;13.462;2024-03-08T06:42:40;60.00;;;36.93;;
9807;SDS011;4943;52.550;13.462;2024-03-08T06:45:09;60.23;;;37.33;;
9807;SDS011;4943;52.550;13.462;2024-03-08T06:47:40;60.13;;;37.13;;
9807;SDS011;4943;52.550;13.462;2024-03-08T06:50:10;59.90;;;36.90;;
9807;SDS011;4943;52.550;13.462;2024-03-08T06:52:38;60.40;;;37.77;;
9807;SDS011;4943;52.550;13.462;2024-03-08T06:55:08;59.77;;;37.40;;
9807;SDS011;4943;52.550;13.462;2024-03-08T06:57:38;59.87;;;37.37;;
9807;SDS011;4943;52.550;13.462;2024-03-08T07:00:08;59.60;;;37.53;;
9807;SDS011;4943;52.550;13.462;2024-03-08T07:02:41;59.90;;;37.63;;
9807;SDS011;4943;52.550;13.462;2024-03-08T07:05:12;59.90;;;37.57;;
9807;SDS011;4943;52.550;13.462;2024-03-08T07:07:40;60.47;;;37.67;;
9807;SDS011;4943;52.550;13.462;2024-03-08T07:10:08;59.77;;;37.63;;
9807;SDS011;4943;52.550;13.462;2024-03-08T07:12:37;59.50;;;37.57;;
9807;SDS011;4943;52.550;13.462;2024-03-08T07:15:05;58.70;;;37.40;;
9807;SDS011;4943;52.550;13.462;2024-03-08T07:17:34;58.60;;;36.97;;
9807;SDS011;4943;52.550;13.462;2024-03-08T07:20:05;58.73;;;37.50;;
9807;SDS011;4943;52.550;13.462;2024-03-08T07:22:38;58.63;;;37.33;;
9807;SDS011;4943;52.550;13.462;2024-03-08T07:25:08;58.93;;;37.23;;
9807;SDS011;4943;52.550;13.462;2024-03-08T07:27:48;59.03;;;37.23;;
9807;SDS011;4943;52.550;13.462;2024-03-08T07:30:18;58.63;;;37.27;;
9807;SDS011;4943;52.550;13.462;2024-03-08T07:33:04;57.97;;;36.97;;
9807;SDS011;4943;52.550;13.462;2024-03-08T07:35:36;58.47;;;36.80;;
9807;SDS011;4943;52.550;13.462;2024-03-08T07:38:05;58.67;;;36.93;;
9807;SDS011;4943;52.550;13.462;2024-03-08T07:40:35;58.17;;;36.93;;
9807;SDS011;4943;52.550;13.462;2024-03-08T07:43:05;58.93;;;37.23;;
9807;SDS011;4943;52.550;13.462;2024-03-08T07:45:34;58.20;;;36.97;;
9807;SDS011;4943;52.550;13.462;2024-03-08T07:48:02;58.33;;;37.23;;
9807;SDS011;4943;52.550;13.462;2024-03-08T07:50:38;58.47;;;37.13;;
9807;SDS011;4943;52.550;13.462;2024-03-08T07:53:07;58.27;;;36.97;;
9807;SDS011;4943;52.550;13.462;2024-03-08T07:55:36;59.10;;;37.37;;
9807;SDS011;4943;52.550;13.462;2024-03-08T07:58:06;58.33;;;37.00;;
9807;SDS011;4943;52.550;13.462;2024-03-08T08:00:37;58.80;;;37.23;;
9807;SDS011;4943;52.550;13.462;2024-03-08T08:03:05;58.70;;;37.13;;
9807;SDS011;4943;52.550;13.462;2024-03-08T08:05:34;58.33;;;36.97;;
9807;SDS011;4943;52.550;13.462;2024-03-08T08:08:07;59.20;;;37.53;;
9807;SDS011;4943;52.550;13.462;2024-03-08T08:10:37;59.23;;;37.00;;
9807;SDS011;4943;52.550;13.462;2024-03-08T08:13:05;59.07;;;37.07;;
9807;SDS011;4943;52.550;13.462;2024-03-08T08:15:33;59.27;;;37.63;;
9807;SDS011;4943;52.550;13.462;2024-03-08T08:18:04;59.70;;;37.30;;
9807;SDS011;4943;52.550;13.462;2024-03-08T08:20:33;59.87;;;37.10;;
9807;SDS011;4943;52.550;13.462;2024-03-08T08:23:03;59.93;;;37.60;;
9807;SDS011;4943;52.550;13.462;2024-03-08T08:25:33;60.20;;;37.60;;
9807;SDS011;4943;52.550;13.462;2024-03-08T08:28:02;60.20;;;37.73;;
9807;SDS011;4943;52.550;13.462;2024-03-08T08:30:31;60.33;;;37.67;;
9807;SDS011;4943;52.550;13.462;2024-03-08T08:33:00;60.10;;;37.43;;
9807;SDS011;4943;52.550;13.462;2024-03-08T08:35:28;60.40;;;37.47;;
9807;SDS011;4943;52.550;13.462;2024-03-08T08:37:56;60.90;;;37.97;;
9807;SDS011;4943;52.550;13.462;2024-03-08T08:40:25;60.37;;;37.77;;
9807;SDS011;4943;52.550;13.462;2024-03-08T08:42:57;60.30;;;37.67;;
9807;SDS011;4943;52.550;13.462;2024-03-08T08:45:26;60.30;;;37.93;;
9807;SDS011;4943;52.550;13.462;2024-03-08T08:47:54;60.70;;;38.07;;
9807;SDS011;4943;52.550;13.462;2024-03-08T08:50:23;61.20;;;38.07;;
9807;SDS011;4943;52.550;13.462;2024-03-08T08:52:52;61.73;;;38.03;;
9807;SDS011;4943;52.550;13.462;2024-03-08T08:55:20;61.97;;;38.13;;
9807;SDS011;4943;52.550;13.462;2024-03-08T08:57:52;62.27;;;38.00;;
9807;SDS011;4943;52.550;13.462;2024-03-08T09:00:24;62.50;;;38.13;;
9807;SDS011;4943;52.550;13.462;2024-03-08T09:02:54;63.17;;;38.43;;
9807;SDS011;4943;52.550;13.462;2024-03-08T09:05:25;63.10;;;38.60;;
9807;SDS011;4943;52.550;13.462;2024-03-08T09:07:53;62.13;;;37.90;;
9807;SDS011;4943;52.550;13.462;2024-03-08T09:10:22;62.40;;;38.27;;
9807;SDS011;4943;52.550;13.462;2024-03-08T09:12:54;62.50;;;38.07;;
9807;SDS011;4943;52.550;13.462;2024-03-08T09:15:24;62.97;;;39.90;;
9807;SDS011;4943;52.550;13.462;2024-03-08T09:17:55;62.37;;;38.07;;
9807;SDS011;4943;52.550;13.462;2024-03-08T09:20:23;60.80;;;37.10;;
9807;SDS011;4943;52.550;13.462;2024-03-08T09:22:51;61.37;;;37.57;;
9807;SDS011;4943;52.550;13.462;2024-03-08T09:25:21;61.03;;;37.27;;
9807;SDS011;4943;52.550;13.462;2024-03-08T09:27:50;61.50;;;38.27;;
9807;SDS011;4943;52.550;13.462;2024-03-08T09:30:18;59.77;;;37.27;;
9807;SDS011;4943;52.550;13.462;2024-03-08T09:32:49;60.47;;;37.93;;
9807;SDS011;4943;52.550;13.462;2024-03-08T09:35:18;60.57;;;38.30;;
9807;SDS011;4943;52.550;13.462;2024-03-08T09:37:46;59.70;;;37.60;;
9807;SDS011;4943;52.550;13.462;2024-03-08T09:40:17;60.37;;;37.57;;
9807;SDS011;4943;52.550;13.462;2024-03-08T09:42:47;60.00;;;37.67;;
9807;SDS011;4943;52.550;13.462;2024-03-08T09:45:15;59.33;;;37.10;;
9807;SDS011;4943;52.550;13.462;2024-03-08T09:47:48;60.37;;;37.80;;
9807;SDS011;4943;52.550;13.462;2024-03-08T09:50:17;59.53;;;37.37;;
9807;SDS011;4943;52.550;13.462;2024-03-08T09:52:46;59.77;;;37.40;;
9807;SDS011;4943;52.550;13.462;2024-03-08T09:55:17;60.90;;;38.37;;
9807;SDS011;4943;52.550;13.462;2024-03-08T09:57:49;60.60;;;37.77;;
9807;SDS011;4943;52.550;13.462;2024-03-08T10:00:37;61.20;;;38.30;;
9807;SDS011;4943;52.550;13.462;2024-03-08T10:03:06;61.23;;;38.03;;
9807;SDS011;4943;52.550;13.462;2024-03-08T10:05:37;61.63;;;38.20;;
9807;SDS011;4943;52.550;13.462;2024-03-08T10:08:07;61.40;;;38.40;;
9807;SDS011;4943;52.550;13.462;2024-03-08T10:10:37;62.10;;;38.40;;
9807;SDS011;4943;52.550;13.462;2024-03-08T10:13:05;62.27;;;38.17;;
9807;SDS011;4943;52.550;13.462;2024-03-08T10:15:35;63.27;;;38.73;;
9807;SDS011;4943;52.550;13.462;2024-03-08T10:18:05;63.03;;;38.40;;
9807;SDS011;4943;52.550;13.462;2024-03-08T10:20:36;62.77;;;38.00;;
9807;SDS011;4943;52.550;13.462;2024-03-08T10:23:05;63.77;;;38.57;;
9807;SDS011;4943;52.550;13.462;2024-03-08T10:25:37;63.87;;;38.80;;
9807;SDS011;4943;52.550;13.462;2024-03-08T10:28:07;63.10;;;38.33;;
9807;SDS011;4943;52.550;13.462;2024-03-08T10:30:36;62.30;;;37.93;;
9807;SDS011;4943;52.550;13.462;2024-03-08T10:33:04;63.33;;;38.53;;
9807;SDS011;4943;52.550;13.462;2024-03-08T10:35:34;63.07;;;37.83;;
9807;SDS011;4943;52.550;13.462;2024-03-08T10:38:03;63.53;;;38.17;;
9807;SDS011;4943;52.550;13.462;2024-03-08T10:40:38;63.73;;;38.60;;
9807;SDS011;4943;52.550;13.462;2024-03-08T10:43:08;63.97;;;38.33;;
9807;SDS011;4943;52.550;13.462;2024-03-08T10:45:46;63.97;;;38.33;;
9807;SDS011;4943;52.550;13.462;2024-03-08T10:48:24;64.07;;;38.40;;
9807;SDS011;4943;52.550;13.462;2024-03-08T10:51:03;63.80;;;39.07;;
9807;SDS011;4943;52.550;13.462;2024-03-08T10:53:34;63.50;;;38.40;;
9807;SDS011;4943;52.550;13.462;2024-03-08T10:56:06;64.20;;;38.60;;
9807;SDS011;4943;52.550;13.462;2024-03-08T10:58:37;64.77;;;38.87;;
9807;SDS011;4943;52.550;13.462;2024-03-08T11:01:06;64.03;;;38.40;;
9807;SDS011;4943;52.550;13.462;2024-03-08T11:03:47;64.13;;;38.73;;
9807;SDS011;4943;52.550;13.462;2024-03-08T11:06:21;62.07;;;37.63;;
9807;SDS011;4943;52.550;13.462;2024-03-08T11:08:57;63.33;;;38.43;;
9807;SDS011;4943;52.550;13.462;2024-03-08T11:11:28;64.80;;;39.80;;
9807;SDS011;4943;52.550;13.462;2024-03-08T11:14:02;64.27;;;38.50;;
9807;SDS011;4943;52.550;13.462;2024-03-08T11:16:41;64.77;;;38.87;;
9807;SDS011;4943;52.550;13.462;2024-03-08T11:21:58;65.07;;;39.30;;
9807;SDS011;4943;52.550;13.462;2024-03-08T11:24:27;64.77;;;39.60;;
9807;SDS011;4943;52.550;13.462;2024-03-08T11:27:04;64.70;;;39.13;;
9807;SDS011;4943;52.550;13.462;2024-03-08T11:29:33;64.50;;;39.13;;
9807;SDS011;4943;52.550;13.462;2024-03-08T11:32:10;63.97;;;38.97;;
9807;SDS011;4943;52.550;13.462;2024-03-08T11:34:43;63.83;;;38.87;;
9807;SDS011;4943;52.550;13.462;2024-03-08T11:37:14;65.60;;;38.80;;
9807;SDS011;4943;52.550;13.462;2024-03-08T11:39:47;67.20;;;38.93;;
9807;SDS011;4943;52.550;13.462;2024-03-08T11:42:16;67.17;;;38.87;;
9807;SDS011;4943;52.550;13.462;2024-03-08T11:44:45;67.77;;;39.30;;
9807;SDS011;4943;52.550;13.462;2024-03-08T11:47:15;65.87;;;39.13;;
9807;SDS011;4943;52.550;13.462;2024-03-08T11:49:45;65.37;;;39.00;;
9807;SDS011;4943;52.550;13.462;2024-03-08T11:52:15;65.43;;;39.07;;
9807;SDS011;4943;52.550;13.462;2024-03-08T11:54:47;65.77;;;39.20;;
9807;SDS011;4943;52.550;13.462;2024-03-08T11:57:20;64.33;;;38.50;;
9807;SDS011;4943;52.550;13.462;2024-03-08T11:59:50;64.50;;;38.73;;
9807;SDS011;4943;52.550;13.462;2024-03-08T12:02:23;65.07;;;39.73;;
9807;SDS011;4943;52.550;13.462;2024-03-08T12:04:57;64.40;;;38.87;;
9807;SDS011;4943;52.550;13.462;2024-03-08T12:07:28;64.70;;;38.87;;
9807;SDS011;4943;52.550;13.462;2024-03-08T12:10:17;64.43;;;39.00;;
9807;SDS011;4943;52.550;13.462;2024-03-08T12:12:48;64.20;;;39.13;;
9807;SDS011;4943;52.550;13.462;2024-03-08T12:15:18;64.63;;;39.50;;
9807;SDS011;4943;52.550;13.462;2024-03-08T12:17:48;63.60;;;38.90;;
9807;SDS011;4943;52.550;13.462;2024-03-08T12:20:22;61.73;;;38.87;;
9807;SDS011;4943;52.550;13.462;2024-03-08T12:22:52;61.07;;;37.83;;
9807;SDS011;4943;52.550;13.462;2024-03-08T12:25:25;60.20;;;37.53;;
9807;SDS011;4943;52.550;13.462;2024-03-08T12:27:54;60.57;;;38.03;;
9807;SDS011;4943;52.550;13.462;2024-03-08T12:30:24;60.33;;;38.33;;
9807;SDS011;4943;52.550;13.462;2024-03-08T12:32:55;59.93;;;37.53;;
9807;SDS011;4943;52.550;13.462;2024-03-08T12:35:26;60.67;;;37.73;;
9807;SDS011;4943;52.550;13.462;2024-03-08T12:37:56;59.83;;;37.27;;
9807;SDS011;4943;52.550;13.462;2024-03-08T12:40:27;60.23;;;37.33;;
9807;SDS011;4943;52.550;13.462;2024-03-08T12:42:58;60.57;;;37.80;;
9807;SDS011;4943;52.550;13.462;2024-03-08T12:45:26;59.63;;;37.40;;
9807;SDS011;4943;52.550;13.462;2024-03-08T12:47:57;60.80;;;38.30;;
9807;SDS011;4943;52.550;13.462;2024-03-08T12:50:27;60.50;;;38.10;;
9807;SDS011;4943;52.550;13.462;2024-03-08T12:52:56;60.17;;;37.87;;
9807;SDS011;4943;52.550;13.462;2024-03-08T12:55:24;60.07;;;37.90;;
9807;SDS011;4943;52.550;13.462;2024-03-08T12:57:52;60.40;;;38.40;;
9807;SDS011;4943;52.550;13.462;2024-03-08T13:00:21;60.50;;;38.13;;
9807;SDS011;4943;52.550;13.462;2024-03-08T13:02:50;60.63;;;38.50;;
9807;SDS011;4943;52.550;13.462;2024-03-08T13:05:18;61.57;;;38.83;;
9807;SDS011;4943;52.550;13.462;2024-03-08T13:07:47;61.20;;;38.17;;
9807;SDS011;4943;52.550;13.462;2024-03-08T13:10:16;61.37;;;38.50;;
9807;SDS011;4943;52.550;13.462;2024-03-08T13:12:46;60.23;;;37.77;;
9807;SDS011;4943;52.550;13.462;2024-03-08T13:15:19;60.50;;;38.00;;
9807;SDS011;4943;52.550;13.462;2024-03-08T13:17:47;59.57;;;37.47;;
9807;SDS011;4943;52.550;13.462;2024-03-08T13:20:16;59.97;;;37.53;;
9807;SDS011;4943;52.550;13.462;2024-03-08T13:22:57;60.30;;;37.93;;
9807;SDS011;4943;52.550;13.462;2024-03-08T13:25:28;60.60;;;38.03;;
9807;SDS011;4943;52.550;13.462;2024-03-08T13:27:57;60.40;;;38.07;;
9807;SDS011;4943;52.550;13.462;2024-03-08T13:30:27;60.53;;;37.73;;
9807;SDS011;4943;52.550;13.462;2024-03-08T13:32:56;61.07;;;38.27;;
9807;SDS011;4943;52.550;13.462;2024-03-08T13:35:25;60.60;;;38.03;;
9807;SDS011;4943;52.550;13.462;2024-03-08T13:37:58;60.87;;;38.20;;
9807;SDS011;4943;52.550;13.462;2024-03-08T13:40:29;60.60;;;38.07;;
9807;SDS011;4943;52.550;13.462;2024-03-08T13:42:57;60.70;;;37.90;;
9807;SDS011;4943;52.550;13.462;2024-03-08T13:45:28;60.47;;;38.33;;
9807;SDS011;4943;52.550;13.462;2024-03-08T13:47:56;59.43;;;37.63;;
9807;SDS011;4943;52.550;13.462;2024-03-08T13:50:24;57.30;;;36.57;;
9807;SDS011;4943;52.550;13.462;2024-03-08T13:52:53;57.90;;;37.10;;
9807;SDS011;4943;52.550;13.462;2024-03-08T13:55:23;58.27;;;37.07;;
9807;SDS011;4943;52.550;13.462;2024-03-08T13:57:54;57.30;;;36.77;;
9807;SDS011;4943;52.550;13.462;2024-03-08T14:00:24;57.23;;;36.73;;
9807;SDS011;4943;52.550;13.462;2024-03-08T14:02:55;57.60;;;37.40;;
9807;SDS011;4943;52.550;13.462;2024-03-08T14:05:23;56.97;;;36.73;;
9807;SDS011;4943;52.550;13.462;2024-03-08T14:07:53;57.30;;;36.90;;
9807;SDS011;4943;52.550;13.462;2024-03-08T14:10:23;58.13;;;37.37;;
9807;SDS011;4943;52.550;13.462;2024-03-08T14:12:53;57.70;;;37.00;;
9807;SDS011;4943;52.550;13.462;2024-03-08T14:15:21;57.00;;;36.53;;
9807;SDS011;4943;52.550;13.462;2024-03-08T14:17:53;57.43;;;37.10;;
9807;SDS011;4943;52.550;13.462;2024-03-08T14:20:21;57.40;;;37.20;;
9807;SDS011;4943;52.550;13.462;2024-03-08T14:22:52;56.90;;;36.67;;
9807;SDS011;4943;52.550;13.462;2024-03-08T14:25:21;56.77;;;36.83;;
9807;SDS011;4943;52.550;13.462;2024-03-08T14:27:52;57.53;;;37.00;;
9807;SDS011;4943;52.550;13.462;2024-03-08T14:30:24;57.10;;;37.07;;
9807;SDS011;4943;52.550;13.462;2024-03-08T14:33:07;57.40;;;37.33;;
9807;SDS011;4943;52.550;13.462;2024-03-08T14:35:36;56.83;;;36.77;;
9807;SDS011;4943;52.550;13.462;2024-03-08T14:38:05;56.87;;;36.60;;
9807;SDS011;4943;52.550;13.462;2024-03-08T14:40:36;56.90;;;36.70;;
9807;SDS011;4943;52.550;13.462;2024-03-08T14:43:05;56.70;;;36.73;;
9807;SDS011;4943;52.550;13.462;2024-03-08T14:45:33;56.87;;;36.80;;
9807;SDS011;4943;52.550;13.462;2024-03-08T14:48:01;56.73;;;36.83;;
9807;SDS011;4943;52.550;13.462;2024-03-08T14:50:32;56.83;;;36.70;;
9807;SDS011;4943;52.550;13.462;2024-03-08T14:53:03;56.03;;;36.07;;